Time;durP1;ratioP1;P1;durP2;ratioP2;P2;SDS_P1;SDS_P2;PMS_P1;PMS_P2;Temp;Humidity;BMP_temperature;BMP_pressure;BME280_temperature;BME280_humidity;BME280_pressure;Samples;Min_cycle;Max_cycle;Signal;HPM_P1;HPM_P2
2023/05/11 00:00:30;;;;;;;2.93;2.53;;;;;;;12.12;100.00;101352.47;5075652;28;20143;-88
2023/05/11 00:02:56;;;;;;;3.23;2.50;;;;;;;12.09;100.00;101347.34;5074669;28;20024;-89
2023/05/11 00:05:21;;;;;;;6.33;3.40;;;;;;;12.11;100.00;101351.63;5075565;28;20028;-88
2023/05/11 00:07:46;;;;;;;5.33;3.20;;;;;;;12.05;100.00;101341.28;5075206;28;20059;-89
2023/05/11 00:10:11;;;;;;;4.10;2.90;;;;;;;12.07;100.00;101343.91;5074840;28;20029;-89
2023/05/11 00:12:37;;;;;;;3.93;2.90;;;;;;;12.04;100.00;101337.84;5075085;28;20156;-89
2023/05/11 00:15:02;;;;;;;3.90;2.87;;;;;;;12.06;100.00;101340.41;5074966;28;20024;-88
2023/05/11 00:17:28;;;;;;;4.10;2.83;;;;;;;12.05;100.00;101330.88;5075049;28;20403;-89
2023/05/11 00:19:53;;;;;;;3.87;2.77;;;;;;;12.02;100.00;101330.94;5074935;28;20496;-88
2023/05/11 00:22:18;;;;;;;3.83;2.90;;;;;;;12.04;100.00;101329.19;5074984;28;20111;-88
2023/05/11 00:24:44;;;;;;;4.20;3.00;;;;;;;12.01;100.00;101319.66;5074514;28;20021;-88
2023/05/11 00:27:09;;;;;;;3.30;2.60;;;;;;;12.01;100.00;101326.63;5074724;28;20059;-89
2023/05/11 00:29:37;;;;;;;3.47;2.70;;;;;;;11.98;100.00;101318.84;5074835;28;20127;-89
2023/05/11 00:32:02;;;;;;;3.60;2.60;;;;;;;11.94;100.00;101331.00;5074808;28;20052;-88
2023/05/11 00:34:27;;;;;;;3.47;2.70;;;;;;;11.96;100.00;101339.66;5074889;28;20445;-90
2023/05/11 00:36:53;;;;;;;4.20;2.70;;;;;;;11.95;100.00;101339.66;5074311;28;20097;-88
2023/05/11 00:39:18;;;;;;;2.70;2.40;;;;;;;11.90;100.00;101343.19;5074641;28;20070;-88
2023/05/11 00:41:43;;;;;;;3.37;2.67;;;;;;;11.89;100.00;101349.28;5074529;28;20044;-89
2023/05/11 00:44:09;;;;;;;4.27;2.80;;;;;;;11.88;100.00;101342.34;5074494;28;20027;-89
2023/05/11 00:46:36;;;;;;;4.40;3.07;;;;;;;11.87;100.00;101338.03;5074482;28;20059;-89
2023/05/11 00:49:01;;;;;;;;;;;;;;;11.89;100.00;101344.06;5075070;28;20023;-89
2023/05/11 00:51:27;;;;;;;4.60;3.00;;;;;;;11.87;100.00;101337.19;5074341;28;20309;-89
2023/05/11 00:53:52;;;;;;;4.50;3.10;;;;;;;11.88;100.00;101342.34;5074497;28;20046;-89
2023/05/11 00:56:18;;;;;;;5.33;3.30;;;;;;;11.89;100.00;101349.28;5074239;28;20028;-88
2023/05/11 00:58:44;;;;;;;4.22;3.03;;;;;;;11.94;100.00;101350.94;5074185;28;20090;-88
2023/05/11 01:01:09;;;;;;;4.50;3.27;;;;;;;11.93;100.00;101350.09;5074281;28;20469;-88
2023/05/11 01:03:35;;;;;;;4.07;3.00;;;;;;;11.94;100.00;101350.94;5073921;28;20066;-88
2023/05/11 01:06:10;;;;;;;4.10;2.80;;;;;;;11.90;100.00;101345.81;5073781;28;20515;-88
2023/05/11 01:08:44;;;;;;;3.78;2.90;;;;;;;11.91;100.00;101344.06;5073966;28;20082;-88
2023/05/11 01:11:32;;;;;;;4.32;2.95;;;;;;;11.90;100.00;101348.41;5074221;28;20032;-88
2023/05/11 01:14:13;;;;;;;5.57;3.30;;;;;;;11.87;100.00;101352.78;5073881;28;20020;-88
2023/05/11 01:16:42;;;;;;;4.30;3.00;;;;;;;11.86;100.00;101349.31;5074097;28;20021;-88
2023/05/11 01:19:22;;;;;;;4.78;3.10;;;;;;;11.86;100.00;101351.91;5073592;28;20477;-88
2023/05/11 01:21:49;;;;;;;4.00;2.78;;;;;;;11.88;100.00;101354.47;5074008;28;20354;-88
2023/05/11 01:24:44;;;;;;;4.50;2.90;;;;;;;11.89;100.00;101356.22;5074098;28;20017;-89
2023/05/11 01:27:40;;;;;;;5.88;3.55;;;;;;;11.88;100.00;101351.88;5073675;28;20060;-89
2023/05/11 01:30:27;;;;;;;5.32;3.38;;;;;;;11.88;100.00;101357.09;5073983;28;20153;-88
2023/05/11 01:32:57;;;;;;;5.05;3.08;;;;;;;11.87;100.00;101358.00;5073585;28;20036;-88
2023/05/11 01:35:29;;;;;;;4.68;3.15;;;;;;;11.85;100.00;101359.75;5073523;28;20108;-86
2023/05/11 01:37:58;;;;;;;4.50;2.92;;;;;;;11.86;100.00;101356.28;5072685;28;20400;-87
2023/05/11 01:40:26;;;;;;;5.68;3.42;;;;;;;11.88;100.00;101359.69;5073215;28;20021;-88
2023/05/11 01:43:06;;;;;;;5.03;3.03;;;;;;;11.87;100.00;101358.84;5073580;28;20027;-88
2023/05/11 01:45:35;;;;;;;5.18;3.20;;;;;;;11.86;100.00;101354.50;5073749;28;20207;-87
2023/05/11 01:48:08;;;;;;;4.55;2.90;;;;;;;11.86;100.00;101359.72;5072166;28;20033;-87
2023/05/11 01:50:36;;;;;;;4.95;2.90;;;;;;;11.84;100.00;101356.25;5075831;28;20030;-88
2023/05/11 01:53:03;;;;;;;5.28;3.00;;;;;;;11.86;100.00;101351.91;5077648;28;20032;-88
2023/05/11 01:55:31;;;;;;;4.57;3.03;;;;;;;11.87;100.00;101358.84;5076782;28;20029;-88
2023/05/11 01:57:57;;;;;;;5.45;3.00;;;;;;;11.86;100.00;101351.06;5077607;28;20055;-88
2023/05/11 02:00:23;;;;;;;4.97;3.17;;;;;;;11.82;100.00;101345.00;5077399;28;20376;-88
2023/05/11 02:02:49;;;;;;;4.80;3.17;;;;;;;11.85;100.00;101352.78;5076790;28;20028;-88
2023/05/11 02:05:21;;;;;;;5.57;3.20;;;;;;;11.82;100.00;101357.19;5077541;28;20025;-88
2023/05/11 02:07:48;;;;;;;6.97;3.63;;;;;;;11.80;100.00;101354.59;5077169;28;20040;-88
2023/05/11 02:10:15;;;;;;;6.55;3.65;;;;;;;11.81;100.00;101352.84;5076832;28;20066;-87
2023/05/11 02:12:41;;;;;;;5.40;3.47;;;;;;;11.77;100.00;101352.03;5077268;28;20029;-88
2023/05/11 02:15:11;;;;;;;6.15;3.70;;;;;;;11.75;100.00;101356.38;5076875;28;20016;-87
2023/05/11 02:17:39;;;;;;;6.90;3.63;;;;;;;11.74;100.00;101354.66;5077074;28;20028;-88
2023/05/11 02:20:07;;;;;;;6.18;3.60;;;;;;;11.71;100.00;101352.97;5077178;28;20099;-86
2023/05/11 02:22:34;;;;;;;13.02;6.20;;;;;;;11.68;100.00;101353.00;5076950;28;20028;-87
2023/05/11 02:25:00;;;;;;;12.45;5.75;;;;;;;11.64;100.00;101348.72;5076848;28;20025;-87
2023/05/11 02:27:26;;;;;;;17.67;8.93;;;;;;;11.57;100.00;101347.06;5076902;28;20078;-88
2023/05/11 02:29:51;;;;;;;14.60;7.27;;;;;;;11.55;100.00;101346.22;5076285;28;20162;-88
2023/05/11 02:32:20;;;;;;;11.10;5.77;;;;;;;11.54;100.00;101339.31;5076925;28;20158;-88
2023/05/11 02:34:53;;;;;;;10.15;5.00;;;;;;;11.51;100.00;101339.34;5076564;28;20029;-87
2023/05/11 02:37:24;;;;;;;8.40;4.53;;;;;;;11.53;100.00;101353.19;5076078;28;20043;-87
2023/05/11 02:39:56;;;;;;;8.25;4.75;;;;;;;11.54;100.00;101344.50;5076463;28;20020;-87
2023/05/11 02:42:23;;;;;;;7.03;3.97;;;;;;;11.51;100.00;101348.00;5075857;28;20028;-87
2023/05/11 02:45:01;;;;;;;6.75;4.10;;;;;;;11.51;100.00;101349.75;5076023;28;20028;-87
2023/05/11 02:47:29;;;;;;;7.07;3.88;;;;;;;11.54;100.00;101355.75;5076342;28;20029;-88
2023/05/11 02:49:57;;;;;;;7.22;4.07;;;;;;;11.56;100.00;101353.13;5076816;28;20016;-88
2023/05/11 02:52:26;;;;;;;6.90;3.85;;;;;;;11.53;100.00;101345.38;5075861;28;20132;-87
2023/05/11 02:54:52;;;;;;;7.97;4.00;;;;;;;11.56;100.00;101351.41;5076223;28;20104;-88
2023/05/11 02:57:18;;;;;;;6.93;4.05;;;;;;;11.51;100.00;101355.78;5075692;28;20518;-88
2023/05/11 02:59:45;;;;;;;7.03;4.10;;;;;;;11.51;100.00;101352.34;5076621;28;20056;-88
2023/05/11 03:02:10;;;;;;;;;;;;;;;11.49;100.00;101349.72;5076351;28;20086;-88
2023/05/11 03:04:36;;;;;;;8.17;4.00;;;;;;;11.47;100.00;101346.31;5075374;28;19916;-88
2023/05/11 03:07:01;;;;;;;7.17;4.00;;;;;;;11.47;100.00;101348.03;5076300;28;20036;-87
2023/05/11 03:09:26;;;;;;;7.60;4.07;;;;;;;11.46;100.00;101352.41;5075984;28;20028;-88
2023/05/11 03:11:52;;;;;;;6.83;4.00;;;;;;;11.44;100.00;101348.94;5075305;28;20028;-88
2023/05/11 03:14:18;;;;;;;5.73;3.60;;;;;;;11.38;100.00;101349.00;5076183;28;20052;-89
2023/05/11 03:16:44;;;;;;;6.90;4.00;;;;;;;11.37;100.00;101348.16;5076276;28;20514;-88
2023/05/11 03:19:09;;;;;;;6.85;4.07;;;;;;;11.36;100.00;101359.41;5075560;28;20021;-88
2023/05/11 03:21:37;;;;;;;6.83;4.07;;;;;;;11.34;100.00;101355.13;5075390;28;20526;-88
2023/05/11 03:24:04;;;;;;;7.65;4.32;;;;;;;11.32;100.00;101354.25;5076138;28;20021;-88
2023/05/11 03:26:32;;;;;;;8.02;4.22;;;;;;;11.30;100.00;101350.81;5075247;28;20085;-88
2023/05/11 03:28:59;;;;;;;7.75;4.22;;;;;;;11.25;100.00;101354.34;5075691;28;20029;-88
2023/05/11 03:31:25;;;;;;;6.80;3.95;;;;;;;11.26;100.00;101356.03;5075779;28;20119;-88
2023/05/11 03:33:51;;;;;;;8.27;4.37;;;;;;;11.26;100.00;101357.78;5075329;28;20088;-88
2023/05/11 03:36:16;;;;;;;6.97;4.10;;;;;;;11.23;100.00;101352.59;5075996;28;20154;-88
2023/05/11 03:38:45;;;;;;;6.23;3.60;;;;;;;11.20;100.00;101355.25;5076286;28;20025;-88
2023/05/11 03:41:14;;;;;;;7.72;3.97;;;;;;;11.18;100.00;101355.25;5075651;28;20357;-88
2023/05/11 03:43:40;;;;;;;7.13;3.60;;;;;;;11.16;100.00;101354.41;5075686;28;20017;-88
2023/05/11 03:46:06;;;;;;;5.50;3.20;;;;;;;11.13;100.00;101354.47;5075685;28;20020;-88
2023/05/11 03:48:32;;;;;;;8.27;4.07;;;;;;;11.10;100.00;101354.47;5074537;28;20024;-87
2023/05/11 03:50:57;;;;;;;9.00;4.57;;;;;;;11.07;100.00;101357.09;5075469;28;20082;-87
2023/05/11 03:53:23;;;;;;;9.47;4.63;;;;;;;11.01;100.00;101350.22;5075450;28;20283;-87
2023/05/11 03:55:49;;;;;;;11.13;5.20;;;;;;;11.02;100.00;101357.13;5074783;28;20035;-88
2023/05/11 03:58:15;;;;;;;11.23;5.15;;;;;;;10.99;100.00;101351.13;5075039;28;20024;-88
2023/05/11 04:00:41;;;;;;;9.03;4.80;;;;;;;11.02;100.00;101358.88;5074710;28;20024;-87
2023/05/11 04:03:08;;;;;;;9.35;4.60;;;;;;;11.01;100.00;101351.97;5074739;28;20464;-87
2023/05/11 04:05:33;;;;;;;10.18;4.80;;;;;;;11.01;100.00;101355.41;5074949;28;20036;-87
2023/05/11 04:07:59;;;;;;;11.03;5.43;;;;;;;11.01;100.00;101349.38;5074149;28;20132;-87
2023/05/11 04:10:25;;;;;;;11.13;5.40;;;;;;;11.02;100.00;101351.09;5074863;28;20075;-87
2023/05/11 04:12:51;;;;;;;10.93;5.30;;;;;;;10.98;100.00;101355.44;5073994;28;20029;-86
2023/05/11 04:15:20;;;;;;;10.35;5.18;;;;;;;10.97;100.00;101351.97;5073953;28;20384;-87
2023/05/11 04:17:48;;;;;;;11.10;5.28;;;;;;;11.01;100.00;101357.16;5074806;28;20028;-87
2023/05/11 04:20:13;;;;;;;9.52;4.95;;;;;;;11.00;100.00;101358.03;5074509;28;20029;-88
2023/05/11 04:22:39;;;;;;;10.40;5.07;;;;;;;11.01;100.00;101360.59;5073831;28;20093;-87
2023/05/11 04:25:04;;;;;;;10.87;5.17;;;;;;;11.01;100.00;101360.59;5074853;28;20024;-87
2023/05/11 04:27:33;;;;;;;9.60;4.93;;;;;;;10.93;100.00;101346.84;5074763;28;20032;-87
2023/05/11 04:29:59;;;;;;;10.60;5.22;;;;;;;11.02;100.00;101362.34;5074015;28;20033;-87
2023/05/11 04:32:25;;;;;;;8.93;4.53;;;;;;;11.02;100.00;101359.72;5074396;28;20503;-88
2023/05/11 04:34:50;;;;;;;8.97;4.70;;;;;;;11.06;100.00;101360.56;5074492;28;20021;-87
2023/05/11 04:37:15;;;;;;;10.83;5.00;;;;;;;11.09;100.00;101360.53;5073962;28;20024;-87
2023/05/11 04:39:40;;;;;;;9.47;4.70;;;;;;;11.11;100.00;101361.41;5073806;28;20523;-88
2023/05/11 04:42:06;;;;;;;9.67;5.20;;;;;;;11.11;100.00;101356.19;5074213;28;20028;-88
2023/05/11 04:44:31;;;;;;;9.13;4.70;;;;;;;11.16;100.00;101358.75;5073277;28;20480;-87
2023/05/11 04:46:59;;;;;;;10.73;5.33;;;;;;;11.18;100.00;101357.84;5074607;28;20017;-87
2023/05/11 04:49:25;;;;;;;9.48;5.18;;;;;;;11.23;100.00;101363.00;5074186;28;20028;-87
2023/05/11 04:51:50;;;;;;;11.37;5.60;;;;;;;11.23;100.00;101363.88;5072884;28;20469;-88
2023/05/11 04:54:15;;;;;;;10.40;5.30;;;;;;;11.22;100.00;101362.16;5073775;28;20012;-88
2023/05/11 04:56:41;;;;;;;10.30;4.97;;;;;;;11.26;100.00;101369.03;5073809;28;20033;-88
2023/05/11 04:59:07;;;;;;;12.67;5.63;;;;;;;11.28;100.00;101375.06;5073490;28;20025;-87
2023/05/11 05:01:32;;;;;;;10.67;5.03;;;;;;;11.28;100.00;101382.03;5074200;28;20016;-87
2023/05/11 05:03:57;;;;;;;10.03;5.00;;;;;;;11.31;100.00;101378.53;5073419;28;20032;-87
2023/05/11 05:06:23;;;;;;;9.57;5.03;;;;;;;11.32;100.00;101386.28;5073760;28;20047;-87
2023/05/11 05:08:48;;;;;;;9.70;4.90;;;;;;;11.34;100.00;101384.53;5073882;28;20094;-87
2023/05/11 05:11:13;;;;;;;10.83;5.30;;;;;;;11.35;100.00;101390.63;5073161;28;20017;-87
2023/05/11 05:13:38;;;;;;;9.07;4.70;;;;;;;11.37;100.00;101388.88;5073626;28;20058;-87
2023/05/11 05:16:04;;;;;;;10.07;4.93;;;;;;;11.39;100.00;101393.19;5073360;28;20021;-87
2023/05/11 05:18:29;;;;;;;10.97;4.90;;;;;;;11.41;100.00;101393.16;5073225;28;20040;-87
2023/05/11 05:20:55;;;;;;;9.87;4.97;;;;;;;11.44;100.00;101400.94;5073592;28;20029;-87
2023/05/11 05:23:20;;;;;;;9.00;4.53;;;;;;;11.47;100.00;101395.69;5073513;28;20111;-87
2023/05/11 05:25:46;;;;;;;8.83;4.70;;;;;;;11.51;100.00;101404.31;5073117;28;20036;-87
2023/05/11 05:28:11;;;;;;;9.53;4.57;;;;;;;11.53;100.00;101390.44;5073533;28;20020;-87
2023/05/11 05:30:36;;;;;;;9.47;4.80;;;;;;;11.61;100.00;101389.47;5073671;28;20027;-87
2023/05/11 05:33:01;;;;;;;9.90;5.00;;;;;;;11.68;100.00;101393.75;5072688;28;20036;-87
2023/05/11 05:35:27;;;;;;;7.80;4.23;;;;;;;11.72;100.00;101396.28;5073693;28;20032;-87
2023/05/11 05:37:52;;;;;;;9.20;4.50;;;;;;;11.80;100.00;101401.41;5073622;28;20025;-87
2023/05/11 05:40:17;;;;;;;9.60;4.87;;;;;;;11.85;100.00;101410.00;5072746;28;20576;-87
2023/05/11 05:42:43;;;;;;;9.97;4.90;;;;;;;11.85;100.00;101403.97;5073323;28;20039;-87
2023/05/11 05:45:09;;;;;;;10.07;4.80;;;;;;;11.89;100.00;101405.63;5073542;28;20021;-87
2023/05/11 05:47:34;;;;;;;8.40;4.50;;;;;;;11.95;100.00;101410.78;5072668;28;20358;-87
2023/05/11 05:49:59;;;;;;;10.20;4.90;;;;;;;11.98;100.00;101408.19;5073323;28;20275;-87
2023/05/11 05:52:25;;;;;;;8.30;4.10;;;;;;;12.03;100.00;101408.13;5073428;28;20074;-87
2023/05/11 05:54:50;;;;;;;11.70;5.50;;;;;;;12.07;100.00;101412.38;5072769;28;20464;-87
2023/05/11 05:57:15;;;;;;;11.60;5.30;;;;;;;12.08;100.00;101414.09;5072973;28;20032;-87
2023/05/11 05:59:41;;;;;;;11.67;5.30;;;;;;;12.12;100.00;101421.00;5073185;28;20056;-87
2023/05/11 06:02:07;;;;;;;10.43;5.17;;;;;;;12.18;100.00;101420.06;5072904;28;20022;-87
2023/05/11 06:04:32;;;;;;;9.55;4.55;;;;;;;12.17;100.00;101429.59;5073097;28;20564;-87
2023/05/11 06:06:58;;;;;;;12.60;5.70;;;;;;;12.16;100.00;101429.63;5073137;28;20055;-87
2023/05/11 06:09:24;;;;;;;14.57;6.43;;;;;;;12.10;100.00;101422.75;5072664;28;20072;-87
2023/05/11 06:11:49;;;;;;;15.97;6.80;;;;;;;12.13;100.00;101433.13;5073140;28;20031;-87
2023/05/11 06:14:14;;;;;;;14.20;6.63;;;;;;;12.14;100.00;101427.06;5072156;28;20027;-86
2023/05/11 06:16:40;;;;;;;14.67;6.60;;;;;;;12.17;100.00;101434.81;5072766;28;20025;-87
2023/05/11 06:19:07;;;;;;;17.60;7.43;;;;;;;12.20;100.00;101429.56;5073256;28;20377;-87
2023/05/11 06:21:32;;;;;;;15.70;6.93;;;;;;;12.20;100.00;101424.38;5072532;28;20052;-87
2023/05/11 06:23:57;;;;;;;13.67;6.47;;;;;;;12.28;100.00;101426.88;5073081;28;20044;-87
2023/05/11 06:26:23;;;;;;;14.37;6.63;;;;;;;12.34;100.00;101436.34;5072986;28;20484;-86
2023/05/11 06:28:49;;;;;;;15.55;6.75;;;;;;;12.45;100.00;101433.56;5072427;28;20381;-86
2023/05/11 06:31:14;;;;;;;14.27;6.40;;;;;;;12.55;100.00;101434.31;5072997;28;20025;-87
2023/05/11 06:33:40;;;;;;;11.97;5.70;;;;;;;12.60;100.00;101437.72;5072718;28;20477;-86
2023/05/11 06:36:06;;;;;;;11.27;5.30;;;;;;;12.60;100.00;101433.38;5073527;28;20028;-87
2023/05/11 06:38:31;;;;;;;13.18;6.00;;;;;;;12.63;100.00;101435.94;5076326;28;20067;-87
2023/05/11 06:40:57;;;;;;;15.03;6.27;;;;;;;12.68;100.00;101438.47;5076525;28;20049;-87
2023/05/11 06:43:22;;;;;;;15.60;7.00;;;;;;;12.70;100.00;101447.13;5075465;28;20024;-86
2023/05/11 06:45:47;;;;;;;15.13;7.13;;;;;;;12.72;100.00;101437.53;5076423;28;20070;-87
2023/05/11 06:48:12;;;;;;;14.10;6.63;;;;;;;12.72;100.00;101444.50;5076316;28;20021;-87
2023/05/11 06:50:38;;;;;;;13.90;6.30;;;;;;;12.71;100.00;101437.56;5075379;28;20029;-87
2023/05/11 06:53:03;;;;;;;17.23;7.43;;;;;;;12.76;100.00;101447.03;5076297;28;20108;-86
2023/05/11 06:55:29;;;;;;;15.50;7.10;;;;;;;12.77;100.00;101446.16;5075972;28;20025;-87
2023/05/11 06:57:54;;;;;;;15.10;6.50;;;;;;;12.78;100.00;101452.22;5075290;28;20036;-87
2023/05/11 07:00:19;;;;;;;13.37;6.07;;;;;;;12.79;100.00;101456.53;5076146;28;20024;-87
2023/05/11 07:02:45;;;;;;;13.20;5.50;;;;;;;12.79;100.00;101453.94;5076253;28;20461;-86
2023/05/11 07:05:11;;;;;;;14.30;6.20;;;;;;;12.80;100.00;101453.94;5075497;28;20107;-87
2023/05/11 07:07:37;;;;;;;13.65;6.45;;;;;;;12.87;100.00;101456.44;5075689;28;20044;-87
2023/05/11 07:10:02;;;;;;;16.57;7.47;;;;;;;12.83;100.00;101453.84;5076011;28;20027;-86
2023/05/11 07:12:28;;;;;;;17.43;7.60;;;;;;;12.85;100.00;101463.41;5075006;28;20124;-87
2023/05/11 07:14:53;;;;;;;15.90;7.07;;;;;;;12.88;100.00;101458.16;5075525;28;20032;-87
2023/05/11 07:17:21;;;;;;;13.60;6.47;;;;;;;12.88;100.00;101459.03;5075888;28;20037;-87
2023/05/11 07:19:46;;;;;;;15.70;6.80;;;;;;;12.94;100.00;101464.13;5074069;28;20447;-87
2023/05/11 07:22:12;;;;;;;16.60;7.07;;;;;;;12.89;100.00;101446.84;5075671;28;20044;-87
2023/05/11 07:24:43;;;;;;;16.83;7.43;;;;;;;12.89;100.00;101445.09;5074988;28;20017;-87
2023/05/11 07:27:09;;;;;;;17.58;7.47;;;;;;;12.95;100.00;101454.56;5075653;28;20376;-87
2023/05/11 07:29:34;;;;;;;18.60;8.23;;;;;;;12.95;100.00;101446.75;5075560;28;20013;-87
2023/05/11 07:32:06;;;;;;;17.50;8.17;;;;;;;13.05;100.00;101452.69;5074562;28;20794;-87
2023/05/11 07:34:44;;;;;;;15.20;6.72;;;;;;;13.13;100.00;101459.50;5075569;28;20023;-87
2023/05/11 07:37:10;;;;;;;13.00;6.10;;;;;;;13.22;100.00;101468.03;5075337;28;20028;-87
2023/05/11 07:39:37;;;;;;;11.27;5.30;;;;;;;13.22;100.00;101457.63;5074528;28;20035;-87
2023/05/11 07:42:08;;;;;;;15.18;7.10;;;;;;;13.30;100.00;101458.34;5075622;28;20021;-87
2023/05/11 07:44:33;;;;;;;13.35;6.03;;;;;;;13.36;100.00;101455.66;5075571;28;20071;-87
2023/05/11 07:46:59;;;;;;;12.20;5.73;;;;;;;13.50;100.00;101472.84;5074158;28;20044;-88
2023/05/11 07:49:27;;;;;;;18.23;8.87;;;;;;;13.57;100.00;101469.22;5075087;28;20086;-87
2023/05/11 07:51:53;;;;;;;16.55;7.40;;;;;;;13.62;100.00;101470.03;5074817;28;20063;-88
2023/05/11 07:54:18;;;;;;;14.63;6.93;;;;;;;13.67;100.00;101469.94;5074694;28;20048;-88
2023/05/11 07:56:43;;;;;;;15.23;6.77;;;;;;;13.72;100.00;101468.97;5075056;28;20085;-87
2023/05/11 07:59:09;;;;;;;15.77;7.40;;;;;;;13.82;100.00;101466.19;5075266;28;20017;-88
2023/05/11 08:01:34;;;;;;;15.37;6.93;;;;;;;13.86;100.00;101467.81;5074311;28;20059;-87
2023/05/11 08:03:59;;;;;;;14.07;6.70;;;;;;;13.88;100.00;101471.25;5074892;28;20064;-88
2023/05/11 08:06:25;;;;;;;13.43;6.17;;;;;;;13.92;100.00;101474.66;5074726;28;20099;-88
2023/05/11 08:08:50;;;;;;;19.40;9.50;;;;;;;13.95;100.00;101480.72;5074309;28;20068;-87
2023/05/11 08:11:17;;;;;;;20.23;9.43;;;;;;;13.88;100.00;101476.47;5074991;28;20035;-87
2023/05/11 08:13:43;;;;;;;19.02;8.95;;;;;;;13.88;100.00;101479.97;5074526;28;20532;-87
2023/05/11 08:16:08;;;;;;;19.20;8.77;;;;;;;13.93;100.00;101485.09;5074438;28;20033;-88
2023/05/11 08:18:33;;;;;;;18.93;8.60;;;;;;;13.98;100.00;101487.63;5074709;28;20022;-88
2023/05/11 08:21:01;;;;;;;18.87;8.93;;;;;;;14.04;100.00;101483.13;5074395;28;20074;-88
2023/05/11 08:23:39;;;;;;;17.95;8.32;;;;;;;14.06;100.00;101470.03;5074856;28;20162;-88
2023/05/11 08:26:20;;;;;;;17.65;8.35;;;;;;;14.11;100.00;101476.06;5074536;28;20032;-87
2023/05/11 08:28:57;;;;;;;19.88;10.13;;;;;;;14.12;100.00;101469.06;5074276;28;20469;-88
2023/05/11 08:31:22;;;;;;;18.55;9.18;;;;;;;14.21;100.00;101476.72;5074130;28;20025;-88
2023/05/11 08:33:48;;;;;;;18.17;8.30;;;;;;;14.24;100.00;101467.97;5074633;28;20484;-88
2023/05/11 08:36:14;;;;;;;17.27;8.10;;;;;;;14.33;100.00;101484.28;5074309;28;20024;-89
2023/05/11 08:38:39;;;;;;;19.60;9.20;;;;;;;14.18;100.00;101475.03;5074269;28;20054;-88
2023/05/11 08:41:06;;;;;;;20.90;10.23;;;;;;;14.12;100.00;101484.72;5073895;28;20024;-88
2023/05/11 08:43:42;;;;;;;;;;;;;;;14.07;100.00;101483.97;5074248;28;20016;-88
2023/05/11 08:46:21;;;;;;;21.42;10.30;;;;;;;13.99;100.00;101479.75;5074655;28;19975;-87
2023/05/11 08:48:57;;;;;;;26.38;14.02;;;;;;;13.94;100.00;101478.13;5074550;28;20025;-88
2023/05/11 08:51:37;;;;;;;25.80;13.73;;;;;;;13.90;100.00;101470.34;5074297;28;20031;-88
2023/05/11 08:54:05;;;;;;;22.23;11.27;;;;;;;13.96;100.00;101466.75;5074365;28;20029;-87
2023/05/11 08:56:33;;;;;;;23.88;11.88;;;;;;;13.99;100.00;101471.91;5073105;28;20461;-88
2023/05/11 08:59:03;;;;;;;22.35;11.50;;;;;;;14.07;100.00;101470.94;5073878;28;20032;-88
2023/05/11 09:01:44;;;;;;;22.45;11.23;;;;;;;14.15;100.00;101466.41;5074122;28;20029;-87
2023/05/11 09:04:26;;;;;;;22.55;11.30;;;;;;;14.24;100.00;101470.59;5073499;28;20017;-88
2023/05/11 09:07:01;;;;;;;19.48;9.90;;;;;;;14.33;100.00;101475.63;5073904;28;20357;-88
2023/05/11 09:09:26;;;;;;;22.60;11.48;;;;;;;14.43;100.00;101481.47;5073712;28;20139;-87
2023/05/11 09:11:54;;;;;;;22.50;11.53;;;;;;;14.56;100.00;101488.16;5073327;28;20093;-88
2023/05/11 09:14:26;;;;;;;25.58;12.40;;;;;;;14.60;100.00;101484.59;5073750;28;20028;-87
2023/05/11 09:17:03;;;;;;;23.63;11.70;;;;;;;14.72;100.00;101482.66;5073653;28;20056;-87
2023/05/11 09:19:29;;;;;;;23.90;12.02;;;;;;;14.94;100.00;101494.34;5073730;28;20123;-87
2023/05/11 09:21:55;;;;;;;22.87;11.57;;;;;;;14.97;100.00;101488.16;5073778;28;20476;-86
2023/05/11 09:24:27;;;;;;;22.13;11.80;;;;;;;15.09;100.00;101487.88;5072915;28;20016;-86
2023/05/11 09:27:08;;;;;;;23.58;12.35;;;;;;;15.26;100.00;101495.31;5073650;28;20028;-86
2023/05/11 09:29:33;;;;;;;22.85;11.65;;;;;;;15.42;100.00;101498.41;5073549;28;20032;-86
2023/05/11 09:31:59;;;;;;;24.77;12.60;;;;;;;15.62;100.00;101497.03;5072764;28;20028;-86
2023/05/11 09:34:24;;;;;;;27.23;15.03;;;;;;;15.73;99.91;101500.22;5073458;28;20142;-87
2023/05/11 09:36:52;;;;;;;24.67;13.53;;;;;;;15.80;99.89;101500.91;5070869;28;20048;-86
2023/05/11 09:39:26;;;;;;;27.63;15.23;;;;;;;15.83;98.65;101494.72;5072507;28;20029;-86
2023/05/11 09:42:12;;;;;;;24.98;13.90;;;;;;;15.97;99.77;101495.25;5073162;28;20028;-86
2023/05/11 09:44:37;;;;;;;23.80;12.52;;;;;;;16.08;100.00;101494.09;5073194;28;20025;-86
2023/05/11 09:47:21;;;;;;;26.27;14.17;;;;;;;16.13;97.80;101487.00;5072705;28;20151;-86
2023/05/11 09:49:47;;;;;;;24.52;13.20;;;;;;;16.25;98.87;101498.88;5073216;28;20032;-86
2023/05/11 09:52:15;;;;;;;28.88;16.58;;;;;;;16.26;97.24;101501.47;5072819;28;20047;-86
2023/05/11 09:54:50;;;;;;;26.05;14.40;;;;;;;16.23;97.43;101492.81;5072993;28;20172;-86
2023/05/11 09:57:24;;;;;;;23.80;13.23;;;;;;;16.35;98.37;101497.69;5073593;28;20028;-86
2023/05/11 09:59:50;;;;;;;23.40;12.40;;;;;;;16.41;97.66;101494.91;5072455;28;20085;-86
2023/05/11 10:02:32;;;;;;;24.50;13.27;;;;;;;16.42;98.12;101504.50;5073110;28;20024;-86
2023/05/11 10:04:59;;;;;;;23.77;12.40;;;;;;;16.38;97.63;101502.84;5072988;28;20036;-86
2023/05/11 10:07:34;;;;;;;23.80;12.63;;;;;;;16.31;97.26;101503.94;5071990;28;20032;-85
2023/05/11 10:10:04;;;;;;;21.92;11.18;;;;;;;16.21;96.14;101498.94;5073179;28;20031;-85
2023/05/11 10:12:32;;;;;;;22.50;11.80;;;;;;;16.21;97.58;101495.47;5076569;28;20020;-86
2023/05/11 10:15:26;;;;;;;25.48;14.10;;;;;;;16.23;93.83;101498.03;5076252;28;20065;-86
2023/05/11 10:17:53;;;;;;;26.33;13.82;;;;;;;16.20;95.73;101488.53;5074978;28;20033;-86
2023/05/11 10:20:19;;;;;;;25.85;14.15;;;;;;;16.23;94.58;101496.28;5076322;28;20029;-84
2023/05/11 10:22:45;;;;;;;26.20;14.10;;;;;;;16.24;94.87;101499.75;5076329;28;20374;-85
2023/05/11 10:25:11;;;;;;;25.97;14.43;;;;;;;16.28;95.53;101498.78;5076711;28;20025;-86
2023/05/11 10:27:39;;;;;;;24.03;12.80;;;;;;;16.31;96.69;101501.31;5076000;28;20836;-85
2023/05/11 10:30:09;;;;;;;23.88;12.27;;;;;;;16.35;96.32;101501.19;5076102;28;20035;-85
2023/05/11 10:32:36;;;;;;;23.80;12.43;;;;;;;16.34;94.73;101502.09;5076551;28;20024;-86
2023/05/11 10:35:03;;;;;;;22.60;11.60;;;;;;;16.27;95.20;101494.44;5075805;28;20388;-86
2023/05/11 10:37:32;;;;;;;25.13;13.38;;;;;;;16.29;94.88;101497.88;5076329;28;20033;-86
2023/05/11 10:39:58;;;;;;;23.48;12.75;;;;;;;16.28;94.46;101498.78;5076341;28;20481;-86
2023/05/11 10:42:51;;;;;;;28.08;15.48;;;;;;;16.20;94.82;101505.09;5075562;28;20029;-86
2023/05/11 10:45:23;;;;;;;28.58;16.00;;;;;;;16.13;92.93;101500.94;5076043;28;20039;-86
2023/05/11 10:48:06;;;;;;;25.00;14.00;;;;;;;16.10;93.01;101502.78;5075894;28;20028;-86
2023/05/11 10:50:31;;;;;;;22.83;12.70;;;;;;;16.11;94.09;101501.88;5075566;28;20154;-86
2023/05/11 10:53:31;;;;;;;30.37;16.87;;;;;;;16.18;93.87;101493.81;5076121;28;20475;-86
2023/05/11 10:56:41;;;;;;;26.20;14.40;;;;;;;16.35;94.58;101498.56;5075308;28;20089;-86
2023/05/11 10:59:15;;;;;;;30.55;17.58;;;;;;;16.54;93.47;101497.16;5059795;28;20449;-86
2023/05/11 11:01:41;;;;;;;26.92;15.48;;;;;;;16.66;93.30;101500.25;5075896;28;20430;-86
2023/05/11 11:04:12;;;;;;;27.52;15.95;;;;;;;16.75;89.87;101498.25;5074825;28;20522;-86
2023/05/11 11:06:39;;;;;;;27.35;15.88;;;;;;;16.79;87.65;101497.28;5075885;28;20026;-86
2023/05/11 11:09:10;;;;;;;26.13;14.73;;;;;;;16.83;91.98;101488.41;5075372;28;20045;-86
2023/05/11 11:11:46;;;;;;;22.88;12.40;;;;;;;16.95;92.34;101492.44;5075204;28;20033;-86
2023/05/11 11:14:15;;;;;;;21.58;11.30;;;;;;;17.04;92.06;101491.28;5075707;28;20048;-86
2023/05/11 11:17:13;;;;;;;21.27;10.77;;;;;;;17.09;91.84;101489.38;5074769;28;20031;-86